Time;durP1;ratioP1;P1;durP2;ratioP2;P2;SDS_P1;SDS_P2;PMS_P1;PMS_P2;Temp;Humidity;BMP_temperature;BMP_pressure;BME280_temperature;BME280_humidity;BME280_pressure;Samples;Min_cycle;Max_cycle;Signal;HPM_P1;HPM_P2
2022/09/29 00:02:01;;;;;;;13.93;13.02;;;;;;;-141.48;100.00;69781.59;5153382;28;20019;-80
2022/09/29 00:04:31;;;;;;;13.75;12.85;;;;;;;-141.48;100.00;69781.59;5144940;28;20041;-79
2022/09/29 00:07:02;;;;;;;13.88;12.82;;;;;;;-141.48;100.00;69781.59;5144864;28;20034;-79
2022/09/29 00:09:32;;;;;;;15.05;11.50;;;;;;;-141.48;100.00;69781.59;5144584;28;20037;-79
2022/09/29 00:12:03;;;;;;;12.35;11.43;;;;;;;-141.48;100.00;69781.59;5144286;28;20027;-80
2022/09/29 00:14:33;;;;;;;14.52;13.45;;;;;;;-141.48;100.00;69781.59;5142561;28;20058;-79
2022/09/29 00:17:04;;;;;;;13.50;12.50;;;;;;;-141.48;100.00;69781.59;5193467;23;20061;-68
2022/09/29 00:19:34;;;;;;;14.23;13.32;;;;;;;-141.48;100.00;69781.59;5205113;28;20061;-68
2022/09/29 00:22:04;;;;;;;14.32;13.05;;;;;;;-141.48;100.00;69781.59;5204975;28;20032;-68
2022/09/29 00:24:35;;;;;;;14.02;13.07;;;;;;;-141.48;100.00;69781.59;5204471;28;20112;-66
2022/09/29 00:27:05;;;;;;;13.40;12.13;;;;;;;-141.48;100.00;69781.59;5205043;28;20060;-66
2022/09/29 00:29:36;;;;;;;15.75;14.25;;;;;;;-141.48;100.00;69781.59;5204594;28;20035;-66
2022/09/29 00:32:06;;;;;;;14.98;12.60;;;;;;;-141.48;100.00;69781.59;5204983;28;20244;-66
2022/09/29 00:34:37;;;;;;;12.30;11.55;;;;;;;-141.48;100.00;69781.59;5204403;28;20052;-66
2022/09/29 00:37:07;;;;;;;13.85;12.93;;;;;;;-141.48;100.00;69781.59;5206558;28;20405;-66
2022/09/29 00:39:38;;;;;;;12.25;11.48;;;;;;;-141.48;100.00;69781.59;5204531;28;20029;-67
2022/09/29 00:42:11;;;;;;;12.15;11.35;;;;;;;-141.48;100.00;69781.59;5204546;28;20021;-67
2022/09/29 00:44:53;;;;;;;12.13;11.25;;;;;;;-141.48;100.00;69781.59;5204564;28;20291;-66
2022/09/29 00:47:24;;;;;;;12.93;11.73;;;;;;;-141.48;100.00;69781.59;5204295;28;20028;-66
2022/09/29 00:50:08;;;;;;;12.35;11.52;;;;;;;-141.48;100.00;69781.59;5204113;28;20156;-66
2022/09/29 00:52:47;;;;;;;12.45;11.65;;;;;;;-141.48;100.00;69781.59;5204680;28;20033;-66
2022/09/29 00:55:30;;;;;;;13.18;12.25;;;;;;;-141.48;100.00;69781.59;5203929;28;20029;-67
2022/09/29 00:58:04;;;;;;;13.65;12.77;;;;;;;-141.48;100.00;69781.59;5204568;28;20075;-67
2022/09/29 01:00:35;;;;;;;13.98;12.98;;;;;;;-141.48;100.00;69781.59;5203349;28;20025;-67
2022/09/29 01:03:14;;;;;;;12.27;11.38;;;;;;;-141.48;100.00;69781.59;5204074;28;20021;-67
2022/09/29 01:05:53;;;;;;;13.07;12.20;;;;;;;-141.48;100.00;69781.59;5188262;28;20120;-67
2022/09/29 01:08:37;;;;;;;11.80;10.90;;;;;;;-141.48;100.00;69781.59;5204192;28;20032;-67
2022/09/29 01:11:10;;;;;;;14.75;13.63;;;;;;;-141.48;100.00;69781.59;5204291;28;20115;-68
2022/09/29 01:13:40;;;;;;;15.73;14.27;;;;;;;-141.48;100.00;69781.59;5203774;28;20029;-67
2022/09/29 01:16:11;;;;;;;15.18;14.07;;;;;;;-141.48;100.00;69781.59;5204113;28;20448;-68
2022/09/29 01:18:43;;;;;;;15.23;14.15;;;;;;;-141.48;100.00;69781.59;5203935;28;20087;-68
2022/09/29 01:21:22;;;;;;;15.38;14.23;;;;;;;-141.48;100.00;69781.59;5205556;28;20025;-67
2022/09/29 01:23:52;;;;;;;14.05;12.88;;;;;;;-141.48;100.00;69781.59;5203776;28;20029;-67
2022/09/29 01:26:51;;;;;;;13.38;12.43;;;;;;;-141.48;100.00;69781.59;5204873;28;20026;-67
2022/09/29 01:29:46;;;;;;;13.73;12.63;;;;;;;-141.48;100.00;69781.59;5203512;28;20079;-67
2022/09/29 01:32:25;;;;;;;13.52;12.52;;;;;;;-141.48;100.00;69781.59;5203935;28;20021;-67
2022/09/29 01:35:40;;;;;;;13.95;12.93;;;;;;;-141.48;100.00;69781.59;5203511;28;20033;-67
2022/09/29 01:38:53;;;;;;;12.73;11.93;;;;;;;-141.48;100.00;69781.59;5160789;28;20115;-67
2022/09/29 01:41:45;;;;;;;14.55;13.55;;;;;;;-141.48;100.00;69781.59;5203141;28;20041;-67
2022/09/29 01:44:32;;;;;;;14.73;13.63;;;;;;;-141.48;100.00;69781.59;5203743;28;20029;-67
2022/09/29 01:47:08;;;;;;;14.57;13.50;;;;;;;-141.48;100.00;69781.59;5203688;28;20440;-68
2022/09/29 01:49:45;;;;;;;14.38;13.27;;;;;;;-141.48;100.00;69781.59;5203451;28;20120;-68
2022/09/29 01:52:24;;;;;;;14.45;13.07;;;;;;;-141.48;100.00;69781.59;5205267;28;20197;-68
2022/09/29 01:54:59;;;;;;;14.07;13.07;;;;;;;-141.48;100.00;69781.59;5203557;28;20381;-68
2022/09/29 01:57:42;;;;;;;12.27;11.50;;;;;;;-141.48;100.00;69781.59;5204060;28;20654;-68
2022/09/29 02:00:15;;;;;;;14.63;13.73;;;;;;;-141.48;100.00;69781.59;5204426;28;20112;-67
2022/09/29 02:02:59;;;;;;;14.57;13.57;;;;;;;-141.48;100.00;69781.59;5208019;28;20285;-67
2022/09/29 02:05:35;;;;;;;15.93;14.65;;;;;;;-141.48;100.00;69781.59;5207403;28;20029;-67
2022/09/29 02:08:13;;;;;;;15.15;14.15;;;;;;;-141.48;100.00;69781.59;5207592;28;20025;-67
2022/09/29 02:10:54;;;;;;;15.45;14.43;;;;;;;-141.48;100.00;69781.59;5207273;28;20500;-66
2022/09/29 02:13:38;;;;;;;;;;;;;;;-141.48;100.00;69781.59;5207802;28;20132;-67
2022/09/29 02:16:12;;;;;;;13.45;12.50;;;;;;;-141.48;100.00;69781.59;5207243;28;19908;-67
2022/09/29 02:18:51;;;;;;;14.90;13.70;;;;;;;-141.48;100.00;69781.59;5207464;28;20033;-67
2022/09/29 02:21:22;;;;;;;15.98;14.90;;;;;;;-141.48;100.00;69781.59;5207063;28;20028;-67
2022/09/29 02:23:54;;;;;;;15.50;14.30;;;;;;;-141.48;100.00;69781.59;5207059;28;20104;-66
2022/09/29 02:26:29;;;;;;;14.95;13.77;;;;;;;-141.48;100.00;69781.59;5207333;28;20080;-67
2022/09/29 02:29:04;;;;;;;14.45;13.55;;;;;;;-141.48;100.00;69781.59;5207227;28;20400;-68
2022/09/29 02:31:36;;;;;;;15.30;13.77;;;;;;;-141.48;100.00;69781.59;5206783;28;20017;-67
2022/09/29 02:34:14;;;;;;;11.35;10.52;;;;;;;-141.48;100.00;69781.59;5206542;28;20710;-66
2022/09/29 02:37:09;;;;;;;13.15;12.25;;;;;;;-141.48;100.00;69781.59;5206883;28;20037;-67
2022/09/29 02:39:46;;;;;;;18.45;15.60;;;;;;;-141.48;100.00;69781.59;5206723;28;20032;-67
2022/09/29 02:42:45;;;;;;;13.77;12.70;;;;;;;-141.48;100.00;69781.59;5208160;28;20033;-67
2022/09/29 02:45:18;;;;;;;12.80;11.85;;;;;;;-141.48;100.00;69781.59;5206369;28;20032;-67
2022/09/29 02:48:24;;;;;;;15.63;14.45;;;;;;;-141.48;100.00;69781.59;5206748;28;20029;-66
2022/09/29 02:51:21;;;;;;;14.52;13.15;;;;;;;-141.48;100.00;69781.59;5202640;28;20037;-66
2022/09/29 02:54:12;;;;;;;17.50;15.80;;;;;;;-141.48;100.00;69781.59;5207739;28;20548;-66
2022/09/29 02:57:01;;;;;;;15.77;14.45;;;;;;;-141.48;100.00;69781.59;5206483;28;20547;-66
2022/09/29 02:59:44;;;;;;;15.90;14.77;;;;;;;-141.48;100.00;69781.59;5206204;28;20028;-66
2022/09/29 03:02:22;;;;;;;15.18;13.85;;;;;;;-141.48;100.00;69781.59;5206525;28;20112;-66
2022/09/29 03:04:53;;;;;;;14.57;13.68;;;;;;;-141.48;100.00;69781.59;5206339;28;20025;-67
2022/09/29 03:07:24;;;;;;;15.45;14.40;;;;;;;-141.48;100.00;69781.59;5206427;28;20029;-67
2022/09/29 03:09:54;;;;;;;16.27;15.10;;;;;;;-141.48;100.00;69781.59;5206390;28;20021;-68
2022/09/29 03:12:25;;;;;;;16.27;15.10;;;;;;;-141.48;100.00;69781.59;5206485;28;20029;-69
2022/09/29 03:14:56;;;;;;;13.93;12.90;;;;;;;-141.48;100.00;69781.59;5205852;28;20032;-67
2022/09/29 03:17:26;;;;;;;15.13;13.77;;;;;;;-141.48;100.00;69781.59;5205975;28;20029;-66
2022/09/29 03:19:57;;;;;;;17.42;16.13;;;;;;;-141.48;100.00;69781.59;5205978;28;20485;-66
2022/09/29 03:22:27;;;;;;;15.63;14.25;;;;;;;-141.48;100.00;69781.59;5206161;28;20516;-67
2022/09/29 03:24:57;;;;;;;13.95;13.07;;;;;;;-141.48;100.00;69781.59;5205883;28;20397;-67
2022/09/29 03:27:28;;;;;;;16.40;15.10;;;;;;;-141.48;100.00;69781.59;5207307;28;20428;-67
2022/09/29 03:29:58;;;;;;;15.63;14.43;;;;;;;-141.48;100.00;69781.59;5205866;28;20453;-67
2022/09/29 03:32:29;;;;;;;15.05;14.10;;;;;;;-141.48;100.00;69781.59;5206001;28;20034;-66
2022/09/29 03:34:59;;;;;;;16.02;14.80;;;;;;;-141.48;100.00;69781.59;5205789;28;20116;-67
2022/09/29 03:37:30;;;;;;;17.02;15.55;;;;;;;-141.48;100.00;69781.59;5205891;28;20029;-67
2022/09/29 03:40:01;;;;;;;15.07;13.98;;;;;;;-141.48;100.00;69781.59;5205620;28;20033;-67
2022/09/29 03:42:31;;;;;;;15.07;14.18;;;;;;;-141.48;100.00;69781.59;5205553;28;20068;-67
2022/09/29 03:45:02;;;;;;;14.25;13.10;;;;;;;-141.48;100.00;69781.59;5206465;28;20419;-66
2022/09/29 03:47:33;;;;;;;16.35;15.07;;;;;;;-141.48;100.00;69781.59;5205652;28;20120;-67
2022/09/29 03:50:03;;;;;;;13.93;12.98;;;;;;;-141.48;100.00;69781.59;5205624;28;20028;-67
2022/09/29 03:52:34;;;;;;;15.30;14.10;;;;;;;-141.48;100.00;69781.59;5205624;28;20029;-67
2022/09/29 03:55:05;;;;;;;14.63;13.32;;;;;;;-141.48;100.00;69781.59;5205018;28;20135;-67
2022/09/29 03:57:35;;;;;;;14.65;13.63;;;;;;;-141.48;100.00;69781.59;5205210;28;20029;-66
2022/09/29 04:00:07;;;;;;;15.98;14.77;;;;;;;-141.48;100.00;69781.59;5205010;28;20036;-67
2022/09/29 04:02:37;;;;;;;14.13;13.13;;;;;;;-141.48;100.00;69781.59;5205384;28;20037;-67
2022/09/29 04:05:08;;;;;;;12.15;11.38;;;;;;;-141.48;100.00;69781.59;5206127;28;20428;-69
2022/09/29 04:07:38;;;;;;;13.98;12.88;;;;;;;-141.48;100.00;69781.59;5204971;28;20552;-67
2022/09/29 04:10:09;;;;;;;15.68;14.25;;;;;;;-141.48;100.00;69781.59;5205428;28;20567;-67
2022/09/29 04:12:39;;;;;;;14.68;13.48;;;;;;;-141.48;100.00;69781.59;5205215;28;20034;-67
2022/09/29 04:15:10;;;;;;;14.32;13.52;;;;;;;-141.48;100.00;69781.59;5205194;28;20430;-67
2022/09/29 04:17:40;;;;;;;14.50;13.50;;;;;;;-141.48;100.00;69781.59;5204714;28;20034;-68
2022/09/29 04:20:11;;;;;;;12.90;11.93;;;;;;;-141.48;100.00;69781.59;5205539;28;20485;-66
2022/09/29 04:22:41;;;;;;;14.55;13.55;;;;;;;-141.48;100.00;69781.59;5204726;28;20033;-67
2022/09/29 04:25:12;;;;;;;15.80;14.20;;;;;;;-141.48;100.00;69781.59;5204823;28;20029;-67
2022/09/29 04:27:42;;;;;;;15.55;14.00;;;;;;;-141.48;100.00;69781.59;5204720;28;20075;-67
2022/09/29 04:30:14;;;;;;;19.30;13.07;;;;;;;-141.48;100.00;69781.59;5204500;28;20482;-67
2022/09/29 04:32:44;;;;;;;13.68;12.68;;;;;;;-141.48;100.00;69781.59;5204596;28;20021;-67
2022/09/29 04:35:15;;;;;;;13.70;12.82;;;;;;;-141.48;100.00;69781.59;5204346;28;20033;-66
2022/09/29 04:37:45;;;;;;;13.68;12.38;;;;;;;-141.48;100.00;69781.59;5204781;28;20017;-67
2022/09/29 04:40:16;;;;;;;13.75;12.55;;;;;;;-141.48;100.00;69781.59;5204434;28;20112;-67
2022/09/29 04:42:46;;;;;;;14.98;13.65;;;;;;;-141.48;100.00;69781.59;5203865;28;20025;-67
2022/09/29 04:45:17;;;;;;;13.38;12.35;;;;;;;-141.48;100.00;69781.59;5189149;28;20464;-71
2022/09/29 04:47:48;;;;;;;11.52;10.75;;;;;;;-141.48;100.00;69781.59;5183932;28;20537;-67
2022/09/29 04:50:18;;;;;;;13.15;12.13;;;;;;;-141.48;100.00;69781.59;5167680;28;20152;-67
2022/09/29 04:52:49;;;;;;;14.77;13.77;;;;;;;-141.48;100.00;69781.59;5184234;28;20025;-67
2022/09/29 04:55:19;;;;;;;14.32;13.10;;;;;;;-141.48;100.00;69781.59;5188828;28;20508;-67
2022/09/29 04:57:50;;;;;;;14.68;13.27;;;;;;;-141.48;100.00;69781.59;5203391;28;20045;-67
2022/09/29 05:00:20;;;;;;;13.85;12.85;;;;;;;-141.48;100.00;69781.59;5203735;28;20144;-67
2022/09/29 05:02:51;;;;;;;14.27;13.18;;;;;;;-141.48;100.00;69781.59;5204088;28;20025;-67
2022/09/29 05:05:21;;;;;;;14.07;13.15;;;;;;;-141.48;100.00;69781.59;5203404;28;20128;-67
2022/09/29 05:07:51;;;;;;;14.68;13.38;;;;;;;-141.48;100.00;69781.59;5203981;28;20025;-68
2022/09/29 05:10:22;;;;;;;14.70;13.70;;;;;;;-141.48;100.00;69781.59;5203684;28;20014;-70
2022/09/29 05:12:53;;;;;;;13.50;12.52;;;;;;;-141.48;100.00;69781.59;5204186;28;20116;-68
2022/09/29 05:15:23;;;;;;;14.60;13.38;;;;;;;-141.48;100.00;69781.59;5203098;28;20025;-68
2022/09/29 05:17:53;;;;;;;14.38;13.32;;;;;;;-141.48;100.00;69781.59;5203295;28;20087;-67
2022/09/29 05:20:24;;;;;;;13.75;12.75;;;;;;;-141.48;100.00;69781.59;5203835;28;20024;-67
2022/09/29 05:22:56;;;;;;;15.55;14.27;;;;;;;-141.48;100.00;69781.59;5203480;28;20041;-70
2022/09/29 05:25:27;;;;;;;16.15;14.50;;;;;;;-141.48;100.00;69781.59;5203270;28;20037;-67
2022/09/29 05:27:58;;;;;;;14.85;13.15;;;;;;;-141.48;100.00;69781.59;5203766;28;20056;-67
2022/09/29 05:30:28;;;;;;;14.50;13.25;;;;;;;-141.48;100.00;69781.59;5204765;28;20485;-67
2022/09/29 05:32:59;;;;;;;13.75;12.68;;;;;;;-141.48;100.00;69781.59;5203467;28;20401;-68
2022/09/29 05:35:30;;;;;;;13.65;12.65;;;;;;;-141.48;100.00;69781.59;5201859;28;20049;-71
2022/09/29 05:38:00;;;;;;;13.82;12.85;;;;;;;-141.48;100.00;69781.59;5205744;28;20029;-68
2022/09/29 05:40:30;;;;;;;14.00;13.00;;;;;;;-141.48;100.00;69781.59;5207734;28;20013;-68
2022/09/29 05:43:01;;;;;;;15.57;14.38;;;;;;;-141.48;100.00;69781.59;5207831;28;20120;-68
2022/09/29 05:45:31;;;;;;;21.90;20.25;;;;;;;-141.48;100.00;69781.59;5207401;28;20044;-67
2022/09/29 05:48:02;;;;;;;16.15;15.13;;;;;;;-141.48;100.00;69781.59;5207638;28;20035;-67
2022/09/29 05:50:40;;;;;;;17.25;16.00;;;;;;;-141.48;100.00;69781.59;5208978;28;20041;-68
2022/09/29 05:53:10;;;;;;;14.52;13.50;;;;;;;-141.48;100.00;69781.59;5208052;28;20055;-68
2022/09/29 05:55:41;;;;;;;17.00;15.50;;;;;;;-141.48;100.00;69781.59;5186204;28;20053;-68
2022/09/29 05:58:11;;;;;;;16.80;14.75;;;;;;;-141.48;100.00;69781.59;5167379;28;20394;-68
2022/09/29 06:00:42;;;;;;;19.90;15.35;;;;;;;-141.48;100.00;69781.59;5165999;28;20403;-68
2022/09/29 06:03:12;;;;;;;14.07;13.07;;;;;;;-141.48;100.00;69781.59;5166122;28;20030;-68
2022/09/29 06:05:43;;;;;;;15.13;14.02;;;;;;;-141.48;100.00;69781.59;5166855;28;20502;-68
2022/09/29 06:08:13;;;;;;;14.18;12.45;;;;;;;-141.48;100.00;69781.59;5166682;28;20023;-68
2022/09/29 06:10:44;;;;;;;16.35;15.23;;;;;;;-141.48;100.00;69781.59;5166862;28;20500;-67
2022/09/29 06:13:14;;;;;;;15.40;13.82;;;;;;;-141.48;100.00;69781.59;5167154;28;20046;-69
2022/09/29 06:15:44;;;;;;;14.23;13.43;;;;;;;-141.48;100.00;69781.59;5166681;28;20112;-68
2022/09/29 06:18:15;;;;;;;15.50;14.20;;;;;;;-141.48;100.00;69781.59;5211840;23;20127;-64
2022/09/29 06:20:46;;;;;;;17.98;16.50;;;;;;;-141.48;100.00;69781.59;5209164;28;20119;-64
2022/09/29 06:23:16;;;;;;;18.65;16.77;;;;;;;-141.48;100.00;69781.59;5208929;28;20029;-64
2022/09/29 06:25:47;;;;;;;17.92;16.30;;;;;;;-141.48;100.00;69781.59;5208729;28;20039;-64
2022/09/29 06:28:17;;;;;;;16.60;15.13;;;;;;;-141.48;100.00;69781.59;5208803;28;20029;-66
2022/09/29 06:30:48;;;;;;;16.23;14.95;;;;;;;-141.48;100.00;69781.59;5226708;28;20033;-64
2022/09/29 06:33:19;;;;;;;18.85;14.63;;;;;;;-141.48;100.00;69781.59;5208903;28;20531;-65
2022/09/29 06:38:38;;;;;;;16.27;15.07;;;;;;;-141.48;100.00;69781.59;5226374;28;20118;-65
2022/09/29 06:41:09;;;;;;;16.70;15.40;;;;;;;-141.48;100.00;69781.59;5208140;28;20224;-65
2022/09/29 06:43:39;;;;;;;19.85;15.20;;;;;;;-141.48;100.00;69781.59;5208415;28;20032;-66
2022/09/29 06:46:09;;;;;;;16.60;15.30;;;;;;;-141.48;100.00;69781.59;5208048;28;20035;-67
2022/09/29 06:48:40;;;;;;;17.20;16.00;;;;;;;-141.48;100.00;69781.59;5208410;28;20031;-68
2022/09/29 06:51:10;;;;;;;31.63;16.95;;;;;;;-141.48;100.00;69781.59;5208333;28;20368;-68
2022/09/29 06:53:41;;;;;;;18.58;16.92;;;;;;;-141.48;100.00;69781.59;5226461;28;20027;-68
2022/09/29 06:56:11;;;;;;;16.90;15.38;;;;;;;-141.48;100.00;69781.59;5208633;28;20025;-68
2022/09/29 06:58:41;;;;;;;21.35;18.40;;;;;;;-141.48;100.00;69781.59;5208438;28;20033;-68
2022/09/29 07:01:12;;;;;;;19.85;18.27;;;;;;;-141.48;100.00;69781.59;5208405;28;20025;-67
2022/09/29 07:03:43;;;;;;;20.73;19.20;;;;;;;-141.48;100.00;69781.59;5208519;28;20033;-67
2022/09/29 07:06:13;;;;;;;18.85;17.55;;;;;;;-141.48;100.00;69781.59;5227824;28;20024;-66
2022/09/29 07:08:44;;;;;;;25.48;19.05;;;;;;;-141.48;100.00;69781.59;5209204;28;20116;-64
2022/09/29 07:14:49;;;;;;;21.10;19.42;;;;;;;-141.48;100.00;69781.59;5216059;22;20045;-81
2022/09/29 07:17:19;;;;;;;21.27;19.25;;;;;;;-141.48;100.00;69781.59;5230814;28;20041;-85
2022/09/29 07:19:54;;;;;;;19.30;16.92;;;;;;;-141.48;100.00;69781.59;5213824;28;20043;-83
2022/09/29 07:22:24;;;;;;;19.67;18.02;;;;;;;-141.48;100.00;69781.59;5210583;28;20031;-82
2022/09/29 07:24:55;;;;;;;18.45;16.77;;;;;;;-141.48;100.00;69781.59;5199143;28;20125;-82
2022/09/29 07:27:25;;;;;;;21.42;19.58;;;;;;;-141.48;100.00;69781.59;5175251;28;20301;-82
2022/09/29 07:29:55;;;;;;;19.38;17.77;;;;;;;-141.48;100.00;69781.59;5192154;28;20483;-82
2022/09/29 07:32:26;;;;;;;23.92;20.48;;;;;;;-141.48;100.00;69781.59;5175722;28;20484;-82
2022/09/29 07:34:56;;;;;;;19.48;17.70;;;;;;;-141.48;100.00;69781.59;5189768;28;20134;-81
2022/09/29 07:37:27;;;;;;;17.67;16.38;;;;;;;-141.48;100.00;69781.59;5191044;28;20025;-79
2022/09/29 07:39:58;;;;;;;23.50;17.98;;;;;;;-141.48;100.00;69781.59;5190545;28;20472;-81
2022/09/29 07:42:28;;;;;;;21.67;19.80;;;;;;;-141.48;100.00;69781.59;5191048;28;20105;-82
2022/09/29 07:44:58;;;;;;;19.30;17.75;;;;;;;-141.48;100.00;69781.59;5171835;28;20479;-83
2022/09/29 07:47:30;;;;;;;18.45;16.88;;;;;;;-141.48;100.00;69781.59;5191114;28;20026;-81
2022/09/29 07:50:00;;;;;;;19.77;17.50;;;;;;;-141.48;100.00;69781.59;5172918;28;20069;-82
2022/09/29 07:52:30;;;;;;;21.63;19.27;;;;;;;-141.48;100.00;69781.59;5173386;28;20030;-82
2022/09/29 07:55:02;;;;;;;18.80;17.27;;;;;;;-141.48;100.00;69781.59;5191143;28;20022;-82
2022/09/29 07:57:32;;;;;;;20.83;19.13;;;;;;;-141.48;100.00;69781.59;5173404;28;20053;-82
2022/09/29 08:00:03;;;;;;;21.65;19.45;;;;;;;-141.48;100.00;69781.59;5190583;28;20022;-80
2022/09/29 08:02:34;;;;;;;18.95;17.35;;;;;;;-141.48;100.00;69781.59;5191537;28;20033;-81
2022/09/29 08:05:04;;;;;;;20.20;18.08;;;;;;;-141.48;100.00;69781.59;5186705;28;20093;-83
2022/09/29 08:07:35;;;;;;;19.30;17.65;;;;;;;-141.48;100.00;69781.59;5186114;28;20061;-81
2022/09/29 08:10:06;;;;;;;18.73;16.85;;;;;;;-141.48;100.00;69781.59;5185545;28;20033;-81
2022/09/29 08:12:36;;;;;;;18.13;16.77;;;;;;;-141.48;100.00;69781.59;5185373;28;20102;-83
2022/09/29 08:15:07;;;;;;;21.98;20.17;;;;;;;-141.48;100.00;69781.59;5187035;28;20116;-80
2022/09/29 08:17:37;;;;;;;18.52;17.02;;;;;;;-141.48;100.00;69781.59;5190287;28;20084;-83
2022/09/29 08:20:08;;;;;;;16.08;14.85;;;;;;;-141.48;100.00;69781.59;5190439;28;20093;-80
2022/09/29 08:22:38;;;;;;;17.77;16.23;;;;;;;-141.48;100.00;69781.59;5189077;28;20370;-81
2022/09/29 08:25:08;;;;;;;20.85;18.80;;;;;;;-141.48;100.00;69781.59;5188285;28;20060;-81
2022/09/29 08:27:39;;;;;;;18.73;17.02;;;;;;;-141.48;100.00;69781.59;5190502;28;20036;-81
2022/09/29 08:30:10;;;;;;;19.90;18.13;;;;;;;-141.48;100.00;69781.59;5190024;28;20361;-80
2022/09/29 08:32:41;;;;;;;17.77;16.40;;;;;;;-141.48;100.00;69781.59;5172274;28;20026;-80
2022/09/29 08:35:11;;;;;;;18.13;16.73;;;;;;;-141.48;100.00;69781.59;5189360;28;20014;-80
2022/09/29 08:37:41;;;;;;;20.02;18.30;;;;;;;-141.48;100.00;69781.59;5190824;28;20093;-81
2022/09/29 08:40:12;;;;;;;18.17;16.42;;;;;;;-141.48;100.00;69781.59;5196060;28;20037;-78
2022/09/29 08:42:52;;;;;;;20.25;18.45;;;;;;;-141.48;100.00;69781.59;5185510;28;20029;-79
2022/09/29 08:45:30;;;;;;;19.13;17.58;;;;;;;-141.48;100.00;69781.59;5190921;28;20025;-82
2022/09/29 08:48:19;;;;;;;19.92;17.58;;;;;;;-141.48;100.00;69781.59;5190163;28;20423;-80
2022/09/29 08:50:56;;;;;;;17.00;15.68;;;;;;;-141.48;100.00;69781.59;5189242;28;20026;-80
2022/09/29 08:53:30;;;;;;;18.15;16.30;;;;;;;-141.48;100.00;69781.59;5188324;28;20066;-83
2022/09/29 08:56:08;;;;;;;16.17;15.00;;;;;;;-141.48;100.00;69781.59;5190282;28;20030;-79
2022/09/29 08:58:39;;;;;;;24.65;14.05;;;;;;;-141.48;100.00;69781.59;5190132;28;20036;-81
2022/09/29 09:01:28;;;;;;;15.55;14.32;;;;;;;-141.48;100.00;69781.59;5190002;28;20085;-80
2022/09/29 09:04:10;;;;;;;16.55;15.20;;;;;;;-141.48;100.00;69781.59;5171708;28;20073;-81
2022/09/29 09:07:04;;;;;;;14.27;13.18;;;;;;;-141.48;100.00;69781.59;5192145;28;20030;-81
2022/09/29 09:09:45;;;;;;;17.95;16.42;;;;;;;-141.48;100.00;69781.59;5193495;28;20053;-81
2022/09/29 09:12:45;;;;;;;16.10;14.60;;;;;;;-141.48;100.00;69781.59;5193507;28;20034;-83
2022/09/29 09:15:18;;;;;;;;;;;;;;;-141.48;100.00;69781.59;5188453;28;20121;-82
2022/09/29 09:17:57;;;;;;;12.82;11.38;;;;;;;-141.48;100.00;69781.59;5189721;28;19925;-82
2022/09/29 09:20:35;;;;;;;12.33;11.43;;;;;;;-141.48;100.00;69781.59;5189045;28;20104;-83
2022/09/29 09:23:30;;;;;;;13.65;12.15;;;;;;;-141.48;100.00;69781.59;5171417;28;20109;-82
2022/09/29 09:26:03;;;;;;;9.98;9.27;;;;;;;-141.48;100.00;69781.59;5189505;28;20029;-81
2022/09/29 09:28:39;;;;;;;9.60;8.90;;;;;;;-141.48;100.00;69781.59;5188745;28;20030;-82
2022/09/29 09:31:19;;;;;;;9.75;8.85;;;;;;;-141.48;100.00;69781.59;5189178;28;20072;-81
2022/09/29 09:33:58;;;;;;;7.40;7.00;;;;;;;-141.48;100.00;69781.59;5187356;28;20030;-81
2022/09/29 09:36:35;;;;;;;8.13;6.87;;;;;;;-141.48;100.00;69781.59;5188210;28;20030;-83
2022/09/29 09:39:20;;;;;;;8.45;7.60;;;;;;;-141.48;100.00;69781.59;5188640;28;20100;-83
2022/09/29 09:41:55;;;;;;;10.02;8.38;;;;;;;-141.48;100.00;69781.59;5189009;28;20068;-83
2022/09/29 09:44:33;;;;;;;8.48;7.88;;;;;;;-141.48;100.00;69781.59;5170040;28;20071;-82
2022/09/29 09:47:24;;;;;;;8.18;7.50;;;;;;;-141.48;100.00;69781.59;5172153;28;20034;-83
2022/09/29 09:50:14;;;;;;;8.52;7.82;;;;;;;-141.48;100.00;69781.59;5189642;28;20034;-83
2022/09/29 09:53:29;;;;;;;11.82;7.07;;;;;;;-141.48;100.00;69781.59;5189970;28;20212;-83
2022/09/29 09:56:15;;;;;;;8.25;7.65;;;;;;;-141.48;100.00;69781.59;5186843;28;20022;-81
2022/09/29 09:59:00;;;;;;;9.07;8.48;;;;;;;-141.48;100.00;69781.59;5190189;28;20495;-82
2022/09/29 10:01:31;;;;;;;7.15;6.68;;;;;;;-141.48;100.00;69781.59;5188769;28;20036;-83
2022/09/29 10:04:02;;;;;;;6.95;6.55;;;;;;;-141.48;100.00;69781.59;5187150;28;20527;-83
2022/09/29 10:06:32;;;;;;;5.60;5.20;;;;;;;-141.48;100.00;69781.59;5188572;28;20029;-83
2022/09/29 10:09:03;;;;;;;11.77;7.05;;;;;;;-141.48;100.00;69781.59;5189010;28;20030;-81
2022/09/29 10:11:33;;;;;;;7.38;6.78;;;;;;;-141.48;100.00;69781.59;5189050;28;20049;-83
2022/09/29 10:14:26;;;;;;;6.45;5.95;;;;;;;-141.48;100.00;69781.59;5186963;28;20030;-83
2022/09/29 10:17:02;;;;;;;7.40;6.88;;;;;;;-141.48;100.00;69781.59;5187489;28;20056;-83
2022/09/29 10:19:50;;;;;;;5.80;5.50;;;;;;;-141.48;100.00;69781.59;5187505;28;20141;-81
2022/09/29 10:22:21;;;;;;;7.50;6.90;;;;;;;-141.48;100.00;69781.59;5191668;28;20026;-82
2022/09/29 10:24:55;;;;;;;6.55;6.05;;;;;;;-141.48;100.00;69781.59;5191392;28;20068;-82
2022/09/29 10:27:26;;;;;;;6.40;6.00;;;;;;;-141.48;100.00;69781.59;5174842;28;20025;-82
2022/09/29 10:29:57;;;;;;;5.95;5.65;;;;;;;-141.48;100.00;69781.59;5192601;28;20040;-82
2022/09/29 10:32:36;;;;;;;5.75;5.45;;;;;;;-141.48;100.00;69781.59;5174884;28;20022;-82
2022/09/29 10:35:26;;;;;;;6.57;6.10;;;;;;;-141.48;100.00;69781.59;5192435;28;20026;-81
2022/09/29 10:38:01;;;;;;;7.65;5.00;;;;;;;-141.48;100.00;69781.59;5192566;28;20034;-81
2022/09/29 10:40:33;;;;;;;5.25;4.95;;;;;;;-141.48;100.00;69781.59;5175054;28;20014;-82
2022/09/29 10:43:30;;;;;;;5.03;4.55;;;;;;;-141.48;100.00;69781.59;5174714;28;20072;-82
2022/09/29 10:46:01;;;;;;;5.95;5.50;;;;;;;-141.48;100.00;69781.59;5192094;28;20042;-81
2022/09/29 10:48:32;;;;;;;6.28;5.68;;;;;;;-141.48;100.00;69781.59;5191892;28;20044;-82
2022/09/29 10:51:04;;;;;;;5.50;5.13;;;;;;;-141.48;100.00;69781.59;5174775;28;20097;-82
2022/09/29 10:53:42;;;;;;;5.03;4.63;;;;;;;-141.48;100.00;69781.59;5191802;28;20087;-82
2022/09/29 10:56:19;;;;;;;5.78;5.35;;;;;;;-141.48;100.00;69781.59;5174568;28;20036;-81
2022/09/29 10:58:57;;;;;;;4.95;4.55;;;;;;;-141.48;100.00;69781.59;5204038;28;20049;-80
2022/09/29 11:01:30;;;;;;;4.38;4.18;;;;;;;-141.48;100.00;69781.59;5196613;28;20017;-81
2022/09/29 11:04:16;;;;;;;5.07;4.78;;;;;;;-141.48;100.00;69781.59;5190874;28;20036;-81
2022/09/29 11:06:47;;;;;;;5.50;5.15;;;;;;;-141.48;100.00;69781.59;5192013;28;20136;-81
2022/09/29 11:09:18;;;;;;;4.68;4.38;;;;;;;-141.48;100.00;69781.59;5173906;28;20150;-80
2022/09/29 11:11:48;;;;;;;5.25;4.75;;;;;;;-141.48;100.00;69781.59;5192332;28;20500;-80
2022/09/29 11:14:37;;;;;;;4.97;4.68;;;;;;;-141.48;100.00;69781.59;5190597;28;20052;-80
2022/09/29 11:17:24;;;;;;;3.08;2.97;;;;;;;-141.48;100.00;69781.59;5192193;28;20488;-81
2022/09/29 11:19:59;;;;;;;4.85;4.38;;;;;;;-141.48;100.00;69781.59;5191314;28;20053;-80
2022/09/29 11:22:49;;;;;;;3.20;3.00;;;;;;;-141.48;100.00;69781.59;5192329;28;20018;-81
2022/09/29 11:25:34;;;;;;;4.00;3.80;;;;;;;-141.48;100.00;69781.59;5191084;28;20022;-80
2022/09/29 11:28:30;;;;;;;3.15;2.97;;;;;;;-141.48;100.00;69781.59;5191204;28;20065;-81
2022/09/29 11:31:30;;;;;;;4.55;4.20;;;;;;;-141.48;100.00;69781.59;5178084;28;20404;-79
2022/09/29 11:34:31;;;;;;;9.45;4.55;;;;;;;-141.48;100.00;69781.59;5203774;28;20038;-79
2022/09/29 11:37:23;;;;;;;4.20;3.92;;;;;;;-141.48;100.00;69781.59;5204611;28;20404;-79
2022/09/29 11:40:02;;;;;;;3.30;3.13;;;;;;;-141.48;100.00;69781.59;5183015;28;20030;-81